createdAt,value
2023-02-11T00:01:33.585Z,3.89
2023-02-11T00:04:01.013Z,3.88
2023-02-11T00:06:28.876Z,3.86
2023-02-11T00:08:57.677Z,3.86
2023-02-11T00:11:26.542Z,3.85
2023-02-11T00:13:53.094Z,3.84
2023-02-11T00:16:20.763Z,3.84
2023-02-11T00:18:48.116Z,3.88
2023-02-11T00:21:20.454Z,3.94
2023-02-11T00:23:47.413Z,4.00
2023-02-11T00:26:40.087Z,4.03
2023-02-11T00:29:06.726Z,4.06
2023-02-11T00:31:33.936Z,4.06
2023-02-11T00:34:00.639Z,4.07
2023-02-11T00:36:29.157Z,4.12
2023-02-11T00:38:56.964Z,4.16
2023-02-11T00:41:23.825Z,4.20
2023-02-11T00:43:50.699Z,4.24
2023-02-11T00:46:17.351Z,4.25
2023-02-11T00:48:44.192Z,4.25
2023-02-11T00:51:11.726Z,4.26
2023-02-11T00:53:38.646Z,4.23
2023-02-11T00:56:05.836Z,4.19
2023-02-11T00:58:32.469Z,4.13
2023-02-11T01:00:59.097Z,4.12
2023-02-11T01:03:26.112Z,4.13
2023-02-11T01:05:52.984Z,4.14
2023-02-11T01:08:21.211Z,4.16
2023-02-11T01:10:58.635Z,4.19
2023-02-11T01:13:26.124Z,4.22
2023-02-11T01:15:53.269Z,4.22
2023-02-11T01:18:39.564Z,4.19
2023-02-11T01:21:06.491Z,4.13
2023-02-11T01:23:33.454Z,4.10
2023-02-11T01:26:00.258Z,4.09
2023-02-11T01:28:29.751Z,4.06
2023-02-11T01:30:56.877Z,4.04
2023-02-11T01:33:23.755Z,4.02
2023-02-11T01:35:50.966Z,4.03
2023-02-11T01:38:22.816Z,4.04
2023-02-11T01:40:56.784Z,4.04
2023-02-11T01:43:24.126Z,4.08
2023-02-11T01:45:59.344Z,4.11
2023-02-11T01:48:30.053Z,4.11
2023-02-11T01:51:04.313Z,4.14
2023-02-11T01:53:51.527Z,4.13
2023-02-11T01:56:37.871Z,4.15
2023-02-11T01:59:10.671Z,4.12
2023-02-11T02:01:39.473Z,4.08
2023-02-11T02:04:06.859Z,4.06
2023-02-11T02:06:43.501Z,4.04
2023-02-11T02:09:20.345Z,4.01
2023-02-11T02:11:46.921Z,4.01
2023-02-11T02:14:13.702Z,4.04
2023-02-11T02:16:40.357Z,4.03
2023-02-11T02:19:17.277Z,3.97
2023-02-11T02:22:14.293Z,3.89
2023-02-11T02:25:10.164Z,3.84
2023-02-11T02:27:45.882Z,3.82
2023-02-11T02:30:24.621Z,3.77
2023-02-11T02:33:22.386Z,3.71
2023-02-11T02:36:08.461Z,3.69
2023-02-11T02:39:00.240Z,3.71
2023-02-11T02:41:29.780Z,3.79
2023-02-11T02:43:56.348Z,3.86
2023-02-11T02:46:24.583Z,3.93
2023-02-11T02:48:52.841Z,3.96
2023-02-11T02:51:43.706Z,4.00
2023-02-11T02:54:22.370Z,4.05
2023-02-11T02:56:58.922Z,4.12
2023-02-11T02:59:28.955Z,4.14
2023-02-11T03:02:35.354Z,4.07
2023-02-11T03:05:12.494Z,4.03
2023-02-11T03:07:49.230Z,4.01
2023-02-11T03:10:21.425Z,3.98
2023-02-11T03:12:48.644Z,3.97
2023-02-11T03:15:18.000Z,3.99
2023-02-11T03:17:46.340Z,3.99
2023-02-11T03:20:15.027Z,3.96
2023-02-11T03:22:48.885Z,3.93
2023-02-11T03:25:15.497Z,3.90
2023-02-11T03:28:05.264Z,3.89
2023-02-11T03:30:39.282Z,3.88
2023-02-11T03:33:11.705Z,3.86
2023-02-11T03:35:50.671Z,3.84
2023-02-11T03:38:29.145Z,3.80
2023-02-11T03:40:56.736Z,3.74
2023-02-11T03:43:35.024Z,3.68
2023-02-11T03:46:02.989Z,3.61
2023-02-11T03:48:40.594Z,3.55
2023-02-11T03:51:08.592Z,3.48
2023-02-11T03:53:36.310Z,3.45
2023-02-11T03:56:07.833Z,3.46
2023-02-11T03:58:34.373Z,3.43
2023-02-11T04:01:02.458Z,3.43
2023-02-11T04:03:29.261Z,3.39
2023-02-11T04:05:55.933Z,3.33
2023-02-11T04:08:22.446Z,3.32
2023-02-11T04:10:48.989Z,3.28
2023-02-11T04:13:15.543Z,3.27
2023-02-11T04:15:42.152Z,3.28
2023-02-11T04:18:08.714Z,3.27
2023-02-11T04:20:35.283Z,3.24
2023-02-11T04:23:01.877Z,3.19
2023-02-11T04:25:28.510Z,3.16
2023-02-11T04:27:57.279Z,3.18
2023-02-11T04:30:25.269Z,3.18
2023-02-11T04:32:51.827Z,3.16
2023-02-11T04:35:18.443Z,3.16
2023-02-11T04:37:45.085Z,3.15
2023-02-11T04:40:12.086Z,3.13
2023-02-11T04:42:38.669Z,3.10
2023-02-11T04:45:06.413Z,3.09
2023-02-11T04:47:32.949Z,3.02
2023-02-11T04:50:01.879Z,2.99
2023-02-11T04:52:28.507Z,2.95
2023-02-11T04:54:55.073Z,2.91
2023-02-11T04:57:21.656Z,2.91
2023-02-11T04:59:49.055Z,2.90
2023-02-11T05:02:15.649Z,2.90
2023-02-11T05:04:42.163Z,2.92
2023-02-11T05:07:08.709Z,2.90
2023-02-11T05:09:35.265Z,2.89
2023-02-11T05:12:01.941Z,2.87
2023-02-11T05:14:28.575Z,2.83
2023-02-11T05:16:55.101Z,2.80
2023-02-11T05:19:21.755Z,2.77
2023-02-11T05:22:02.251Z,2.80
2023-02-11T05:24:31.542Z,2.83
2023-02-11T05:26:58.100Z,2.83
2023-02-11T05:29:24.718Z,2.81
2023-02-11T05:31:51.298Z,2.81
2023-02-11T05:34:17.928Z,2.81
2023-02-11T05:36:44.483Z,2.84
2023-02-11T05:39:11.201Z,2.82
2023-02-11T05:41:38.315Z,2.80
2023-02-11T05:44:04.954Z,2.78
2023-02-11T05:46:31.595Z,2.77
2023-02-11T05:48:58.495Z,2.77
2023-02-11T05:51:25.449Z,2.76
2023-02-11T05:53:52.927Z,2.74
2023-02-11T05:56:19.501Z,2.73
2023-02-11T05:58:46.039Z,2.78
2023-02-11T06:01:12.682Z,2.76
2023-02-11T06:03:39.208Z,2.70
2023-02-11T06:06:10.529Z,2.60
2023-02-11T06:08:39.188Z,2.51
2023-02-11T06:11:06.020Z,2.47
2023-02-11T06:13:32.549Z,2.42
2023-02-11T06:16:00.626Z,2.38
2023-02-11T06:18:27.397Z,2.39
2023-02-11T06:20:54.102Z,2.40
2023-02-11T06:23:20.924Z,2.39
2023-02-11T06:25:47.699Z,2.38
2023-02-11T06:28:14.457Z,2.37
2023-02-11T06:30:41.357Z,2.48
2023-02-11T06:33:07.890Z,2.59
2023-02-11T06:35:35.426Z,2.66
2023-02-11T06:38:02.051Z,2.63
2023-02-11T06:40:28.684Z,2.58
2023-02-11T06:43:02.835Z,2.65
2023-02-11T06:45:29.428Z,2.74
2023-02-11T06:47:56.106Z,2.81
2023-02-11T06:50:22.809Z,2.90
2023-02-11T06:52:49.412Z,2.97
2023-02-11T06:55:16.077Z,3.01
2023-02-11T06:57:42.842Z,3.07
2023-02-11T07:00:10.172Z,3.10
2023-02-11T07:02:36.847Z,3.10
2023-02-11T07:05:04.942Z,3.12
2023-02-11T07:07:34.126Z,3.14
2023-02-11T07:10:03.102Z,3.16
2023-02-11T07:12:30.514Z,3.19
2023-02-11T07:14:57.419Z,3.21
2023-02-11T07:17:24.005Z,3.29
2023-02-11T07:19:50.590Z,3.36
2023-02-11T07:22:17.203Z,3.45
2023-02-11T07:24:43.996Z,3.50
2023-02-11T07:27:10.694Z,3.52
2023-02-11T07:29:37.557Z,3.55
2023-02-11T07:32:04.288Z,3.57
2023-02-11T07:34:31.101Z,3.61
2023-02-11T07:36:58.886Z,3.62
2023-02-11T07:39:28.412Z,3.66
2023-02-11T07:41:55.317Z,3.71
2023-02-11T07:44:21.935Z,3.76
2023-02-11T07:46:49.358Z,3.77
2023-02-11T07:49:17.827Z,3.85
2023-02-11T07:51:44.823Z,3.94
2023-02-11T07:54:11.765Z,4.04
2023-02-11T07:56:38.313Z,4.14
2023-02-11T07:59:04.926Z,4.20
2023-02-11T08:01:31.899Z,4.30
2023-02-11T08:04:01.102Z,4.38
2023-02-11T08:06:30.261Z,4.45
2023-02-11T08:08:57.125Z,4.35
2023-02-11T08:11:26.206Z,4.17
2023-02-11T08:13:53.948Z,3.98
2023-02-11T08:16:30.125Z,3.78
2023-02-11T08:18:59.378Z,3.72
2023-02-11T08:21:26.171Z,3.70
2023-02-11T08:23:55.680Z,3.71
2023-02-11T08:26:24.556Z,3.77
2023-02-11T08:28:52.920Z,3.83
2023-02-11T08:31:26.604Z,3.94
2023-02-11T08:33:54.872Z,4.04
2023-02-11T08:36:23.375Z,4.14
2023-02-11T08:38:50.447Z,4.30
2023-02-11T08:41:17.403Z,4.60
2023-02-11T08:43:45.204Z,4.89
2023-02-11T08:46:14.400Z,5.13
2023-02-11T08:48:41.619Z,5.32
2023-02-11T08:51:10.027Z,5.53
2023-02-11T08:53:37.254Z,5.69
2023-02-11T08:56:04.124Z,5.83
2023-02-11T08:58:30.839Z,5.96
2023-02-11T09:00:57.725Z,6.12
2023-02-11T09:03:24.579Z,6.31
2023-02-11T09:05:53.432Z,6.53
2023-02-11T09:08:21.068Z,6.76
2023-02-11T09:10:48.000Z,6.96
2023-02-11T09:13:14.895Z,7.14
2023-02-11T09:15:45.471Z,7.30
2023-02-11T09:18:12.037Z,7.45
2023-02-11T09:20:38.806Z,7.58
2023-02-11T09:23:05.411Z,7.72
2023-02-11T09:25:32.200Z,7.90
2023-02-11T09:28:01.623Z,8.08
2023-02-11T09:30:28.401Z,8.26
2023-02-11T09:32:55.062Z,8.42
2023-02-11T09:35:21.767Z,8.61
2023-02-11T09:37:48.370Z,8.80
2023-02-11T09:40:15.658Z,8.97
2023-02-11T09:42:53.108Z,9.15
2023-02-11T09:45:23.398Z,9.31
2023-02-11T09:48:11.069Z,9.45
2023-02-11T09:50:42.144Z,9.60
2023-02-11T09:53:25.267Z,9.73
2023-02-11T09:55:57.293Z,9.84
2023-02-11T09:58:27.127Z,9.93
2023-02-11T10:01:13.958Z,10.03
2023-02-11T10:03:47.455Z,10.12
2023-02-11T10:06:17.011Z,10.20
2023-02-11T10:09:05.672Z,10.28
2023-02-11T10:11:57.465Z,10.36
2023-02-11T10:14:42.817Z,10.42
2023-02-11T10:17:18.304Z,10.48
2023-02-11T10:20:17.299Z,10.55
2023-02-11T10:22:50.531Z,10.58
2023-02-11T10:25:26.345Z,10.58
2023-02-11T10:27:55.505Z,10.53
2023-02-11T10:30:35.187Z,10.47
2023-02-11T10:33:19.610Z,10.45
2023-02-11T10:35:46.435Z,10.44
2023-02-11T10:38:13.333Z,10.43
2023-02-11T10:40:40.859Z,10.43
2023-02-11T10:43:15.667Z,10.47
2023-02-11T10:45:52.524Z,10.50
2023-02-11T10:48:49.594Z,10.53
2023-02-11T10:51:28.436Z,10.56
2023-02-11T10:54:04.099Z,10.59
2023-02-11T10:56:33.159Z,10.65
2023-02-11T10:59:02.282Z,10.74
2023-02-11T11:01:44.182Z,10.82
2023-02-11T11:04:33.715Z,10.90
2023-02-11T11:07:14.584Z,10.99
2023-02-11T11:09:52.389Z,11.06
2023-02-11T11:12:35.255Z,11.11
2023-02-11T11:15:13.555Z,11.18
2023-02-11T11:17:40.771Z,11.21
2023-02-11T11:20:20.729Z,11.25
2023-02-11T11:22:51.842Z,11.29
2023-02-11T11:25:27.343Z,11.35
2023-02-11T11:27:57.273Z,11.40
2023-02-11T11:30:27.976Z,11.44
2023-02-11T11:32:55.258Z,11.46
2023-02-11T11:35:30.773Z,11.50
2023-02-11T11:38:02.231Z,11.56
2023-02-11T11:40:44.554Z,11.64
2023-02-11T11:43:14.484Z,11.69
2023-02-11T11:46:03.021Z,11.72
2023-02-11T11:48:41.599Z,11.75
2023-02-11T11:51:20.909Z,11.77
2023-02-11T11:54:07.351Z,11.85
2023-02-11T11:56:36.309Z,11.93
2023-02-11T11:59:18.536Z,11.98
2023-02-11T12:02:14.204Z,12.00
2023-02-11T12:04:43.557Z,12.05
2023-02-11T12:07:24.784Z,12.11
2023-02-11T12:10:11.348Z,12.15
2023-02-11T12:12:47.006Z,12.18
2023-02-11T12:15:25.835Z,12.21
2023-02-11T12:18:12.504Z,12.25
2023-02-11T12:20:54.424Z,12.27
2023-02-11T12:24:02.242Z,12.22
2023-02-11T12:26:36.434Z,12.12
2023-02-11T12:29:28.262Z,12.04
2023-02-11T12:32:32.306Z,11.95
2023-02-11T12:35:11.514Z,11.63
2023-02-11T12:38:08.386Z,11.34
2023-02-11T12:40:45.517Z,11.00
2023-02-11T12:43:29.668Z,10.75
2023-02-11T12:46:15.120Z,10.57
2023-02-11T12:49:01.728Z,10.44
2023-02-11T12:51:53.522Z,10.36
2023-02-11T12:54:33.833Z,10.34
2023-02-11T12:57:17.073Z,10.34
2023-02-11T12:59:55.373Z,10.32
2023-02-11T13:02:40.936Z,10.32
2023-02-11T13:05:16.645Z,10.35
2023-02-11T13:07:46.782Z,10.38
2023-02-11T13:10:34.355Z,10.40
2023-02-11T13:13:19.511Z,10.44
2023-02-11T13:15:50.422Z,10.49
2023-02-11T13:18:55.965Z,10.55
2023-02-11T13:21:29.746Z,10.57
2023-02-11T13:24:05.721Z,10.57
2023-02-11T13:26:54.468Z,10.58
2023-02-11T13:29:36.219Z,10.57
2023-02-11T13:32:14.581Z,10.57
2023-02-11T13:34:44.130Z,10.52
2023-02-11T13:37:36.486Z,10.49
2023-02-11T13:40:13.175Z,10.42
2023-02-11T13:42:51.626Z,10.40
2023-02-11T13:45:39.785Z,10.43
2023-02-11T13:48:45.842Z,10.42
2023-02-11T13:51:18.088Z,10.25
2023-02-11T13:53:59.266Z,10.05
2023-02-11T13:56:37.384Z,10.08
2023-02-11T13:59:33.533Z,10.21
2023-02-11T14:02:23.247Z,10.31
2023-02-11T14:05:28.217Z,10.40
2023-02-11T14:08:31.809Z,10.48
2023-02-11T14:10:59.696Z,10.51
2023-02-11T14:13:37.607Z,10.56
2023-02-11T14:16:10.114Z,10.59
2023-02-11T14:18:47.078Z,10.59
2023-02-11T14:21:49.094Z,10.54
2023-02-11T14:24:28.129Z,10.63
2023-02-11T14:27:24.468Z,10.85
2023-02-11T14:30:34.196Z,11.04
2023-02-11T14:33:16.355Z,11.16
2023-02-11T14:35:43.150Z,11.22
2023-02-11T14:38:57.761Z,11.21
2023-02-11T14:41:30.096Z,11.09
2023-02-11T14:43:59.821Z,11.01
2023-02-11T14:46:27.860Z,10.94
2023-02-11T14:48:58.047Z,10.93
2023-02-11T14:51:27.346Z,10.92
2023-02-11T14:53:59.402Z,10.89
2023-02-11T14:56:26.854Z,10.85
2023-02-11T14:58:55.408Z,10.79
2023-02-11T15:01:35.496Z,10.74
2023-02-11T15:04:04.616Z,10.70
2023-02-11T15:06:39.718Z,10.76
2023-02-11T15:09:18.625Z,10.79
2023-02-11T15:11:49.148Z,10.76
2023-02-11T15:14:27.750Z,10.70
2023-02-11T15:16:57.711Z,10.61
2023-02-11T15:19:34.660Z,10.56
2023-02-11T15:22:15.704Z,10.50
2023-02-11T15:24:42.664Z,10.37
2023-02-11T15:27:14.649Z,10.31
2023-02-11T15:29:42.826Z,10.37
2023-02-11T15:32:09.563Z,10.44
2023-02-11T15:34:37.081Z,10.51
2023-02-11T15:37:05.243Z,10.58
2023-02-11T15:39:41.289Z,10.64
2023-02-11T15:42:28.281Z,10.69
2023-02-11T15:45:15.174Z,10.72
2023-02-11T15:48:12.424Z,10.74
2023-02-11T15:50:44.067Z,10.75
2023-02-11T15:53:27.414Z,10.76
2023-02-11T15:56:04.405Z,10.76
2023-02-11T15:58:37.020Z,10.76
2023-02-11T16:01:03.868Z,10.75
2023-02-11T16:03:33.849Z,10.75
2023-02-11T16:06:25.226Z,10.74
2023-02-11T16:09:08.692Z,10.72
2023-02-11T16:11:39.333Z,10.71
2023-02-11T16:14:20.762Z,10.67
2023-02-11T16:16:51.576Z,10.65
2023-02-11T16:19:25.376Z,10.62
2023-02-11T16:21:53.987Z,10.59
2023-02-11T16:24:22.755Z,10.57
2023-02-11T16:26:51.299Z,10.55
2023-02-11T16:29:22.938Z,10.54
2023-02-11T16:31:50.490Z,10.51
2023-02-11T16:34:19.657Z,10.48
2023-02-11T16:36:47.330Z,10.46
2023-02-11T16:39:14.812Z,10.44
2023-02-11T16:41:41.510Z,10.42
2023-02-11T16:44:08.377Z,10.40
2023-02-11T16:46:36.877Z,10.38
2023-02-11T16:49:15.244Z,10.34
2023-02-11T16:51:48.596Z,10.32
2023-02-11T16:54:17.300Z,10.31
2023-02-11T16:56:44.235Z,10.29
2023-02-11T16:59:11.299Z,10.27
2023-02-11T17:01:45.906Z,10.23
2023-02-11T17:04:21.196Z,10.20
2023-02-11T17:06:50.732Z,10.15
2023-02-11T17:09:22.717Z,10.11
2023-02-11T17:11:49.530Z,10.06
2023-02-11T17:14:16.556Z,10.02
2023-02-11T17:16:43.936Z,9.97
2023-02-11T17:19:16.821Z,9.93
2023-02-11T17:21:44.742Z,9.89
2023-02-11T17:24:11.587Z,9.84
2023-02-11T17:26:39.112Z,9.80
2023-02-11T17:29:07.424Z,9.76
2023-02-11T17:31:34.293Z,9.71
2023-02-11T17:34:01.010Z,9.67
2023-02-11T17:36:31.289Z,9.62
2023-02-11T17:38:58.764Z,9.56
2023-02-11T17:41:25.727Z,9.49
2023-02-11T17:43:52.502Z,9.46
2023-02-11T17:46:19.670Z,9.41
2023-02-11T17:48:46.867Z,9.37
2023-02-11T17:51:28.332Z,9.33
2023-02-11T17:53:57.854Z,9.29
2023-02-11T17:56:24.769Z,9.25
2023-02-11T17:58:52.551Z,9.19
2023-02-11T18:01:20.204Z,9.13
2023-02-11T18:03:47.102Z,9.04
2023-02-11T18:06:13.654Z,8.94
2023-02-11T18:08:41.825Z,8.84
2023-02-11T18:11:12.943Z,8.78
2023-02-11T18:13:39.490Z,8.69
2023-02-11T18:16:08.559Z,8.63
2023-02-11T18:18:35.262Z,8.55
2023-02-11T18:21:04.027Z,8.48
2023-02-11T18:23:30.749Z,8.42
2023-02-11T18:25:57.375Z,8.37
2023-02-11T18:28:24.107Z,8.31
2023-02-11T18:30:58.201Z,8.27
2023-02-11T18:33:24.960Z,8.20
2023-02-11T18:35:51.979Z,8.15
2023-02-11T18:38:20.963Z,8.05
2023-02-11T18:40:52.016Z,7.99
2023-02-11T18:43:19.935Z,7.91
2023-02-11T18:45:48.551Z,7.88
2023-02-11T18:48:17.817Z,7.84
2023-02-11T18:50:45.873Z,7.81
2023-02-11T18:53:13.398Z,7.78
2023-02-11T18:55:54.034Z,7.75
2023-02-11T18:58:23.931Z,7.70
2023-02-11T19:00:50.852Z,7.66
2023-02-11T19:03:19.861Z,7.63
2023-02-11T19:05:48.743Z,7.58
2023-02-11T19:08:17.608Z,7.57
2023-02-11T19:10:55.382Z,7.52
2023-02-11T19:13:22.025Z,7.49
2023-02-11T19:15:48.694Z,7.44
2023-02-11T19:18:18.091Z,7.37
2023-02-11T19:20:45.518Z,7.32
2023-02-11T19:23:12.135Z,7.26
2023-02-11T19:25:45.822Z,7.23
2023-02-11T19:28:18.891Z,7.23
2023-02-11T19:30:45.535Z,7.20
2023-02-11T19:33:12.111Z,7.18
2023-02-11T19:35:38.768Z,7.19
2023-02-11T19:38:06.873Z,7.16
2023-02-11T19:40:35.836Z,7.11
2023-02-11T19:43:07.125Z,7.06
2023-02-11T19:45:37.181Z,7.01
2023-02-11T19:48:05.266Z,7.01
2023-02-11T19:50:31.935Z,6.96
2023-02-11T19:52:58.912Z,6.91
2023-02-11T19:55:25.613Z,6.86
2023-02-11T19:57:52.527Z,6.82
2023-02-11T20:00:30.956Z,6.79
2023-02-11T20:02:58.910Z,6.76
2023-02-11T20:05:25.745Z,6.74
2023-02-11T20:07:52.318Z,6.75
2023-02-11T20:10:19.323Z,6.71
2023-02-11T20:12:47.958Z,6.68
2023-02-11T20:15:14.652Z,6.63
2023-02-11T20:17:41.253Z,6.59
2023-02-11T20:20:09.394Z,6.58
2023-02-11T20:22:36.243Z,6.55
2023-02-11T20:25:03.387Z,6.54
2023-02-11T20:27:32.171Z,6.52
2023-02-11T20:29:58.840Z,6.49
2023-02-11T20:32:27.506Z,6.48
2023-02-11T23:10:12.157Z,5.15
2023-02-11T23:12:38.794Z,5.14
2023-02-11T23:15:05.539Z,5.14
2023-02-11T23:17:32.107Z,5.13
2023-02-11T23:19:58.670Z,5.11
2023-02-11T23:22:25.221Z,5.11
2023-02-11T23:24:51.813Z,5.11
2023-02-11T23:27:18.491Z,5.10
2023-02-11T23:29:45.353Z,5.12
2023-02-11T23:32:12.114Z,5.12
2023-02-11T23:34:38.890Z,5.08
2023-02-11T23:37:05.507Z,5.03
2023-02-11T23:39:32.038Z,5.02
2023-02-11T23:41:59.570Z,5.00
2023-02-11T23:44:27.197Z,4.99
2023-02-11T23:46:53.968Z,4.99
2023-02-11T23:49:20.498Z,4.95
2023-02-11T23:51:47.199Z,4.90
2023-02-11T23:54:15.115Z,4.87
2023-02-11T23:56:44.824Z,4.86
2023-02-11T23:59:11.697Z,4.84
